createdAt,value
2023-03-02T00:00:10.776Z,25.23
2023-03-02T00:01:10.833Z,25.26
2023-03-02T00:02:10.906Z,25.28
2023-03-02T00:03:10.971Z,25.23
2023-03-02T00:04:11.041Z,25.22
2023-03-02T00:05:11.038Z,25.23
2023-03-02T00:06:11.090Z,25.20
2023-03-02T00:07:11.135Z,25.14
2023-03-02T00:08:11.169Z,25.21
2023-03-02T00:09:11.243Z,25.16
2023-03-02T00:10:11.258Z,25.14
2023-03-02T00:11:11.336Z,25.11
2023-03-02T00:12:11.369Z,25.18
2023-03-02T00:13:11.402Z,25.20
2023-03-02T00:14:11.499Z,25.15
2023-03-02T00:15:11.531Z,25.20
2023-03-02T00:16:11.717Z,25.17
2023-03-02T00:17:11.690Z,25.15
2023-03-02T00:18:11.676Z,25.12
2023-03-02T00:19:11.730Z,25.12
2023-03-02T00:20:11.882Z,25.14
2023-03-02T00:21:11.819Z,25.10
2023-03-02T00:22:11.860Z,25.02
2023-03-02T00:23:11.908Z,25.06
2023-03-02T00:24:11.967Z,25.10
2023-03-02T00:25:12.031Z,25.08
2023-03-02T00:26:12.110Z,25.09
2023-03-02T00:27:12.095Z,25.08
2023-03-02T00:28:12.173Z,25.07
2023-03-02T00:29:12.212Z,25.05
2023-03-02T00:30:12.365Z,25.10
2023-03-02T00:31:12.361Z,25.06
2023-03-02T00:32:12.346Z,25.00
2023-03-02T00:33:12.388Z,25.00
2023-03-02T00:34:12.447Z,25.01
2023-03-02T00:35:12.516Z,25.00
2023-03-02T00:36:12.524Z,25.00
2023-03-02T00:37:12.571Z,24.97
2023-03-02T00:38:12.656Z,24.97
2023-03-02T00:39:12.638Z,24.97
2023-03-02T00:40:12.698Z,24.96
2023-03-02T00:41:12.695Z,24.97
2023-03-02T00:42:12.773Z,24.94
2023-03-02T00:43:12.757Z,24.96
2023-03-02T00:44:12.788Z,24.93
2023-03-02T00:45:12.809Z,24.94
2023-03-02T00:46:12.898Z,24.90
2023-03-02T00:47:12.854Z,24.89
2023-03-02T00:48:12.934Z,24.90
2023-03-02T00:49:12.912Z,24.87
2023-03-02T00:50:12.946Z,24.85
2023-03-02T00:51:12.926Z,24.83
2023-03-02T00:52:12.938Z,24.83
2023-03-02T00:53:12.957Z,24.77
2023-03-02T00:54:12.990Z,24.78
2023-03-02T00:55:12.966Z,24.76
2023-03-02T00:56:12.978Z,24.74
2023-03-02T00:57:12.978Z,24.71
2023-03-02T00:58:12.978Z,24.69
2023-03-02T00:59:12.988Z,24.69
2023-03-02T01:00:12.958Z,24.66
2023-03-02T01:01:13.015Z,24.65
2023-03-02T02:09:16.314Z,23.96
2023-03-02T02:10:16.400Z,23.96
2023-03-02T02:11:16.447Z,23.95
2023-03-02T02:12:16.501Z,23.95
2023-03-02T02:13:16.589Z,23.94
2023-03-02T02:14:16.614Z,23.96
2023-03-02T02:15:16.666Z,23.94
2023-03-02T02:16:16.720Z,23.95
2023-03-02T02:18:16.831Z,23.91
2023-03-02T03:11:19.067Z,23.65
2023-03-02T03:12:19.087Z,23.67
2023-03-02T03:13:19.136Z,23.65
2023-03-02T03:14:19.160Z,23.63
2023-03-02T03:15:19.201Z,23.63
2023-03-02T03:16:19.234Z,23.63
2023-03-02T03:17:19.277Z,23.64
2023-03-02T03:18:19.271Z,23.61
2023-03-02T03:19:19.332Z,23.62
2023-03-02T03:20:19.321Z,23.62
2023-03-02T03:21:19.365Z,23.63
2023-03-02T03:22:19.401Z,23.61
2023-03-02T03:23:19.411Z,23.63
2023-03-02T03:24:19.459Z,23.60
2023-03-02T03:25:19.488Z,23.59
2023-03-02T03:26:19.527Z,23.61
2023-03-02T03:27:19.559Z,23.62
2023-03-02T03:28:19.569Z,23.60
2023-03-02T03:29:19.615Z,23.60
2023-03-02T03:30:19.603Z,23.60
2023-03-02T03:31:19.727Z,23.60
2023-03-02T03:32:19.772Z,23.60
2023-03-02T03:33:19.739Z,23.58
2023-03-02T03:34:19.701Z,23.59
2023-03-02T03:35:19.781Z,23.59
2023-03-02T03:36:19.751Z,23.58
2023-03-02T03:37:19.800Z,23.59
2023-03-02T03:38:19.764Z,23.60
2023-03-02T03:39:19.820Z,23.58
2023-03-02T03:40:19.796Z,23.59
2023-03-02T03:41:19.886Z,23.57
2023-03-02T03:42:19.929Z,23.58
2023-03-02T03:43:19.909Z,23.58
2023-03-02T03:44:19.991Z,23.58
2023-03-02T03:45:19.998Z,23.58
2023-03-02T03:46:20.054Z,23.60
2023-03-02T03:47:20.163Z,23.59
2023-03-02T03:48:20.140Z,23.60
2023-03-02T03:49:20.158Z,23.58
2023-03-02T03:50:20.187Z,23.59
2023-03-02T03:51:20.241Z,23.60
2023-03-02T03:52:20.270Z,23.60
2023-03-02T03:53:20.320Z,23.59
2023-03-02T03:54:20.394Z,23.60
2023-03-02T03:55:20.390Z,23.59
2023-03-02T03:56:20.441Z,23.59
2023-03-02T03:57:20.484Z,23.58
2023-03-02T03:58:20.572Z,23.60
2023-03-02T03:59:20.561Z,23.60
2023-03-02T04:00:20.638Z,23.60
2023-03-02T04:01:21.550Z,23.59
2023-03-02T04:02:20.750Z,23.60
2023-03-02T04:03:20.747Z,23.59
2023-03-02T04:04:20.823Z,23.60
2023-03-02T04:05:20.867Z,23.60
2023-03-02T04:06:20.923Z,23.62
2023-03-02T04:07:20.993Z,23.61
2023-03-02T04:08:21.000Z,23.60
2023-03-02T04:09:21.051Z,23.63
2023-03-02T04:10:21.122Z,23.63
2023-03-02T04:11:21.148Z,23.62
2023-03-02T04:12:21.212Z,23.63
2023-03-02T04:13:21.269Z,23.62
2023-03-02T04:14:21.316Z,23.63
2023-03-02T04:15:21.385Z,23.62
2023-03-02T04:16:21.424Z,23.63
2023-03-02T04:17:21.431Z,23.61
2023-03-02T04:18:21.510Z,23.63
2023-03-02T04:19:21.578Z,23.63
2023-03-02T04:20:21.618Z,23.62
2023-03-02T04:21:21.708Z,23.64
2023-03-02T04:22:21.737Z,23.64
2023-03-02T04:23:21.805Z,23.64
2023-03-02T04:24:21.877Z,23.64
2023-03-02T04:25:21.932Z,23.65
2023-03-02T04:26:21.982Z,23.66
2023-03-02T04:27:22.039Z,23.65
2023-03-02T04:28:22.110Z,23.64
2023-03-02T04:29:22.196Z,23.66
2023-03-02T04:30:22.220Z,23.65
2023-03-02T04:31:22.318Z,23.67
2023-03-02T04:32:22.401Z,23.67
2023-03-02T04:33:22.370Z,23.67
2023-03-02T04:34:22.448Z,23.67
2023-03-02T04:35:22.663Z,23.67
2023-03-02T04:36:22.579Z,23.69
2023-03-02T04:37:22.607Z,23.68
2023-03-02T04:38:22.683Z,23.66
2023-03-02T04:39:22.737Z,23.69
2023-03-02T04:40:22.821Z,23.68
2023-03-02T04:41:22.845Z,23.69
2023-03-02T04:42:22.888Z,23.68
2023-03-02T04:43:22.932Z,23.68
2023-03-02T04:44:23.008Z,23.67
2023-03-02T04:45:23.053Z,23.68
2023-03-02T04:46:23.209Z,23.67
2023-03-02T04:47:23.113Z,23.70
2023-03-02T04:48:23.165Z,23.67
2023-03-02T04:49:23.201Z,23.68
2023-03-02T04:50:23.260Z,23.68
2023-03-02T04:51:23.291Z,23.67
2023-03-02T04:52:23.356Z,23.68
2023-03-02T04:53:23.400Z,23.67
2023-03-02T04:54:23.470Z,23.67
2023-03-02T04:55:23.531Z,23.67
2023-03-02T04:56:23.589Z,23.65
2023-03-02T04:57:23.633Z,23.66
2023-03-02T04:58:23.692Z,23.64
2023-03-02T04:59:23.766Z,23.66
2023-03-02T05:00:23.768Z,23.61
2023-03-02T05:01:23.814Z,23.62
2023-03-02T05:02:23.957Z,23.63
2023-03-02T05:03:23.934Z,23.61
2023-03-02T05:04:24.202Z,23.62
2023-03-02T05:05:24.052Z,23.61
2023-03-02T05:06:24.109Z,23.59
2023-03-02T05:07:24.146Z,23.60
2023-03-02T05:08:24.230Z,23.60
2023-03-02T05:09:24.294Z,23.56
2023-03-02T05:12:24.419Z,23.57
2023-03-02T05:13:24.504Z,23.59
2023-03-02T05:14:24.576Z,23.56
2023-03-02T05:15:24.650Z,23.56
2023-03-02T05:16:24.707Z,23.57
2023-03-02T05:17:24.701Z,23.55
2023-03-02T05:18:24.777Z,23.55
2023-03-02T05:19:24.878Z,23.54
2023-03-02T05:20:24.901Z,23.54
2023-03-02T05:21:24.975Z,23.54
2023-03-02T05:22:25.031Z,23.53
2023-03-02T05:23:25.935Z,23.55
2023-03-02T05:43:26.305Z,23.48
2023-03-02T05:44:26.348Z,23.49
2023-03-02T05:45:26.421Z,23.48
2023-03-02T05:46:26.501Z,23.46
2023-03-02T05:47:26.583Z,23.46
2023-03-02T05:48:26.585Z,23.46
2023-03-02T05:49:26.676Z,23.46
2023-03-02T05:50:26.707Z,23.46
2023-03-02T05:51:26.788Z,23.47
2023-03-02T05:52:26.871Z,23.48
2023-03-02T05:53:26.929Z,23.45
2023-03-02T05:54:26.956Z,23.46
2023-03-02T05:55:27.043Z,23.47
2023-03-02T05:56:27.120Z,23.45
2023-03-02T05:57:27.152Z,23.43
2023-03-02T05:58:27.213Z,23.46
2023-03-02T05:59:27.276Z,23.43
2023-03-02T06:01:46.262Z,23.46
2023-03-02T06:02:46.311Z,23.46
2023-03-02T06:03:46.347Z,23.45
2023-03-02T06:04:46.437Z,23.45
2023-03-02T06:05:46.457Z,23.45
2023-03-02T06:06:46.515Z,23.44
2023-03-02T06:07:46.602Z,23.44
2023-03-02T06:08:46.606Z,23.44
2023-03-02T06:09:46.678Z,23.43
2023-03-02T06:10:46.782Z,23.42
2023-03-02T06:11:46.765Z,23.41
2023-03-02T06:12:46.826Z,23.42
2023-03-02T06:13:46.901Z,23.40
2023-03-02T06:14:46.977Z,23.41
2023-03-02T06:15:47.037Z,23.40
2023-03-02T06:16:47.174Z,23.39
2023-03-02T06:17:47.090Z,23.39
2023-03-02T06:18:47.148Z,23.40
2023-03-02T06:19:47.233Z,23.38
2023-03-02T06:20:47.244Z,23.38
2023-03-02T06:21:47.351Z,23.38
2023-03-02T06:22:47.378Z,23.38
2023-03-02T06:23:47.418Z,23.35
2023-03-02T06:24:47.470Z,23.34
2023-03-02T06:25:47.542Z,23.34
2023-03-02T06:26:47.533Z,23.34
2023-03-02T06:27:47.616Z,23.31
2023-03-02T06:28:52.684Z,23.30
2023-03-02T06:29:48.657Z,23.29
2023-03-02T06:30:47.683Z,23.28
2023-03-02T06:31:47.751Z,23.29
2023-03-02T06:32:47.750Z,23.26
2023-03-02T06:33:47.666Z,23.31
2023-03-02T06:34:47.642Z,23.29
2023-03-02T06:35:48.010Z,23.10
2023-03-02T06:36:47.609Z,22.84
2023-03-02T06:37:47.649Z,21.95
2023-03-02T06:38:47.708Z,21.71
2023-03-02T06:39:47.616Z,21.45
2023-03-02T06:40:47.896Z,21.57
2023-03-02T06:41:47.712Z,21.57
2023-03-02T06:42:47.921Z,21.68
2023-03-02T06:43:47.809Z,21.68
2023-03-02T06:44:47.846Z,22.53
2023-03-02T06:45:55.484Z,21.87
2023-03-02T06:46:47.907Z,21.94
2023-03-02T06:47:47.888Z,21.98
2023-03-02T06:48:47.910Z,22.08
2023-03-02T06:49:47.947Z,22.04
2023-03-02T06:50:47.914Z,21.88
2023-03-02T06:51:47.855Z,21.81
2023-03-02T06:52:47.884Z,21.60
2023-03-02T06:53:47.865Z,21.65
2023-03-02T06:54:47.837Z,21.73
2023-03-02T06:55:47.916Z,21.58
2023-03-02T06:56:47.895Z,21.54
2023-03-02T06:57:47.827Z,21.60
2023-03-02T06:58:47.878Z,21.39
2023-03-02T06:59:47.920Z,21.37
2023-03-02T07:00:48.571Z,21.33
2023-03-02T07:01:47.902Z,21.41
2023-03-02T07:02:48.883Z,21.38
2023-03-02T07:03:47.902Z,21.31
2023-03-02T07:04:47.886Z,21.22
2023-03-02T07:05:47.861Z,21.24
2023-03-02T07:06:47.905Z,21.28
2023-03-02T07:07:47.842Z,21.32
2023-03-02T07:08:47.801Z,21.21
2023-03-02T07:09:47.728Z,21.20
2023-03-02T07:10:47.731Z,21.26
2023-03-02T07:11:47.830Z,21.14
2023-03-02T07:12:47.834Z,21.16
2023-03-02T07:13:47.768Z,21.23
2023-03-02T07:14:47.816Z,21.11
2023-03-02T07:15:47.713Z,21.08
2023-03-02T07:16:47.824Z,20.98
2023-03-02T07:17:47.799Z,20.97
2023-03-02T07:18:47.856Z,20.95
2023-03-02T07:19:48.459Z,20.97
2023-03-02T07:20:47.919Z,20.91
2023-03-02T07:21:47.907Z,20.85
2023-03-02T07:22:47.919Z,20.87
2023-03-02T07:23:47.957Z,20.94
2023-03-02T07:24:48.043Z,20.89
2023-03-02T07:25:48.093Z,20.82
2023-03-02T07:26:48.106Z,20.81
2023-03-02T07:27:48.171Z,20.84
2023-03-02T07:28:48.193Z,20.85
2023-03-02T07:29:48.280Z,20.81
2023-03-02T07:30:48.363Z,20.77
2023-03-02T07:31:48.356Z,20.88
2023-03-02T07:32:48.363Z,20.98
2023-03-02T07:33:48.407Z,20.96
2023-03-02T07:34:48.413Z,21.18
2023-03-02T07:35:48.993Z,21.34
2023-03-02T07:36:48.462Z,21.59
2023-03-02T07:37:48.464Z,21.71
2023-03-02T07:38:48.518Z,21.70
2023-03-02T07:39:48.546Z,21.81
2023-03-02T07:40:48.920Z,21.82
2023-03-02T07:41:48.671Z,22.16
2023-03-02T07:42:48.750Z,22.00
2023-03-02T07:43:48.727Z,22.23
2023-03-02T07:44:48.733Z,22.20
2023-03-02T07:45:49.039Z,22.20
2023-03-02T07:46:48.932Z,22.24
2023-03-02T07:47:48.861Z,22.33
2023-03-02T07:48:48.880Z,22.46
2023-03-02T07:49:48.865Z,22.55
2023-03-02T07:50:48.972Z,22.62
2023-03-02T07:51:49.704Z,22.79
2023-03-02T07:52:48.950Z,22.88
2023-03-02T07:53:49.210Z,22.93
2023-03-02T07:54:49.144Z,23.04
2023-03-02T07:55:49.175Z,23.14
2023-03-02T07:56:49.178Z,23.22
2023-03-02T07:57:49.293Z,23.41
2023-03-02T07:58:49.300Z,23.51
2023-03-02T07:59:49.338Z,23.59
2023-03-02T08:00:49.409Z,23.78
2023-03-02T08:01:49.531Z,23.89
2023-03-02T08:02:49.527Z,24.01
2023-03-02T08:03:49.499Z,24.09
2023-03-02T08:04:49.605Z,24.25
2023-03-02T08:05:49.593Z,24.39
2023-03-02T08:06:49.634Z,24.58
2023-03-02T08:07:49.683Z,24.68
2023-03-02T08:08:49.676Z,24.81
2023-03-02T08:09:49.675Z,24.88
2023-03-02T08:10:49.696Z,25.05
2023-03-02T08:11:49.758Z,25.16
2023-03-02T08:12:49.749Z,25.35
2023-03-02T08:13:49.712Z,25.49
2023-03-02T08:14:49.754Z,25.54
2023-03-02T08:15:49.878Z,25.69
2023-03-02T08:16:50.019Z,25.77
2023-03-02T08:17:49.865Z,25.88
2023-03-02T08:18:49.950Z,26.01
2023-03-02T08:19:49.879Z,26.18
2023-03-02T08:20:49.860Z,26.26
2023-03-02T08:21:49.907Z,26.38
2023-03-02T08:22:49.951Z,26.50
2023-03-02T08:23:50.106Z,26.62
2023-03-02T08:24:50.051Z,26.77
2023-03-02T08:25:50.137Z,26.98
2023-03-02T08:26:50.203Z,27.08
2023-03-02T08:27:50.258Z,27.15
2023-03-02T08:28:50.300Z,27.29
2023-03-02T08:29:50.325Z,27.48
2023-03-02T08:30:50.405Z,27.60
2023-03-02T08:31:51.092Z,27.70
2023-03-02T08:32:50.550Z,27.73
2023-03-02T08:33:50.639Z,28.29
2023-03-02T08:34:50.638Z,28.51
2023-03-02T08:35:52.744Z,28.61
2023-03-02T08:36:50.759Z,29.07
2023-03-02T08:37:50.853Z,29.20
2023-03-02T08:38:50.883Z,29.18
2023-03-02T08:39:50.951Z,29.14
2023-03-02T08:40:51.021Z,28.32
2023-03-02T08:41:51.039Z,28.03
2023-03-02T08:42:51.075Z,27.49
2023-03-02T08:43:51.189Z,27.92
2023-03-02T08:44:51.187Z,27.92
2023-03-02T08:45:51.278Z,28.13
2023-03-02T08:46:51.192Z,28.01
2023-03-02T08:47:51.280Z,27.78
2023-03-02T08:48:51.312Z,27.88
2023-03-02T08:49:51.282Z,27.81
2023-03-02T08:50:51.336Z,27.68
2023-03-02T08:51:51.446Z,27.49
2023-03-02T08:52:51.304Z,27.38
2023-03-02T08:53:51.336Z,27.28
2023-03-02T08:54:51.444Z,27.22
2023-03-02T08:55:51.393Z,27.09
2023-03-02T08:56:51.437Z,27.06
2023-03-02T08:57:53.021Z,26.83
2023-03-02T08:58:51.449Z,26.74
2023-03-02T08:59:51.414Z,26.51
2023-03-02T09:00:51.556Z,26.50
2023-03-02T09:01:51.928Z,26.51
2023-03-02T09:02:51.487Z,26.42
2023-03-02T09:03:51.457Z,26.43
2023-03-02T09:04:51.460Z,26.41
2023-03-02T09:05:51.442Z,26.44
2023-03-02T09:06:51.443Z,26.39
2023-03-02T09:07:51.479Z,26.31
2023-03-02T09:08:51.569Z,26.33
2023-03-02T09:09:51.670Z,26.22
2023-03-02T09:10:51.678Z,25.99
2023-03-02T09:11:51.957Z,25.97
2023-03-02T09:12:51.716Z,25.98
2023-03-02T09:13:51.697Z,25.88
2023-03-02T09:14:51.916Z,25.87
2023-03-02T09:15:51.880Z,25.63
2023-03-02T09:16:52.069Z,25.66
2023-03-02T09:17:51.999Z,25.56
2023-03-02T09:18:52.106Z,25.40
2023-03-02T09:19:52.112Z,25.54
2023-03-02T09:20:52.168Z,25.37
2023-03-02T09:21:52.269Z,25.14
2023-03-02T09:22:52.261Z,25.31
2023-03-02T09:23:52.376Z,25.23
2023-03-02T09:24:52.432Z,25.28
2023-03-02T09:25:52.456Z,25.25
2023-03-02T09:26:52.969Z,24.97
2023-03-02T09:27:52.615Z,25.07
2023-03-02T09:28:52.687Z,25.06
2023-03-02T09:29:52.735Z,24.95
2023-03-02T09:30:52.833Z,24.79
2023-03-02T09:31:53.102Z,24.87
2023-03-02T09:32:53.024Z,24.90
2023-03-02T09:33:53.020Z,24.82
2023-03-02T09:34:53.072Z,24.91
2023-03-02T09:35:53.136Z,25.16
2023-03-02T09:36:53.184Z,25.22
2023-03-02T09:37:53.276Z,25.49
2023-03-02T09:38:53.316Z,25.50
2023-03-02T09:39:53.409Z,25.29
2023-03-02T09:40:53.372Z,23.09
2023-03-02T09:41:53.444Z,23.09
2023-03-02T09:42:53.435Z,21.73
2023-03-02T09:43:53.407Z,22.53
2023-03-02T09:44:53.513Z,23.38
2023-03-02T09:45:53.576Z,23.47
2023-03-02T09:46:53.530Z,24.65
2023-03-02T09:47:53.544Z,23.68
2023-03-02T09:48:53.590Z,23.64
2023-03-02T09:49:53.619Z,23.78
2023-03-02T09:50:53.618Z,23.37
2023-03-02T09:51:53.977Z,20.37
2023-03-02T09:52:53.706Z,21.00
2023-03-02T09:53:53.739Z,22.52
2023-03-02T09:54:53.710Z,22.95
2023-03-02T09:55:53.738Z,23.54
2023-03-02T09:56:54.002Z,22.65
2023-03-02T09:57:53.735Z,22.63
2023-03-02T09:58:53.764Z,22.59
2023-03-02T09:59:53.753Z,22.53
2023-03-02T10:00:53.801Z,22.62
2023-03-02T10:01:53.875Z,22.69
2023-03-02T10:02:53.990Z,22.97
2023-03-02T10:03:54.088Z,22.91
2023-03-02T10:04:54.014Z,22.05
2023-03-02T10:05:54.480Z,20.81
2023-03-02T10:06:54.621Z,20.04
2023-03-02T10:07:54.432Z,20.04
2023-03-02T10:08:54.470Z,19.68
2023-03-02T10:09:54.298Z,19.77
2023-03-02T10:10:54.193Z,19.99
2023-03-02T10:11:54.550Z,20.30
2023-03-02T10:12:54.218Z,21.49
2023-03-02T10:13:54.482Z,21.80
2023-03-02T10:14:54.469Z,22.28
2023-03-02T10:15:54.876Z,22.32
2023-03-02T10:16:55.101Z,22.50
2023-03-02T10:17:54.427Z,22.61
2023-03-02T10:18:54.989Z,22.39
2023-03-02T10:19:54.565Z,21.76
2023-03-02T10:20:55.317Z,21.21
2023-03-02T10:21:54.485Z,21.23
2023-03-02T10:22:55.013Z,22.12
2023-03-02T10:23:54.463Z,21.89
2023-03-02T10:24:54.482Z,22.25
2023-03-02T10:25:54.488Z,20.86
2023-03-02T10:26:54.532Z,20.64
2023-03-02T10:27:55.025Z,21.00
2023-03-02T10:28:54.902Z,20.99
2023-03-02T10:29:54.531Z,21.60
2023-03-02T10:30:54.667Z,21.63
2023-03-02T10:31:54.625Z,21.96
2023-03-02T10:32:54.611Z,21.08
2023-03-02T10:33:54.624Z,21.22
2023-03-02T10:34:54.572Z,20.55
2023-03-02T10:35:54.668Z,21.43
2023-03-02T10:36:54.598Z,20.99
2023-03-02T10:37:54.645Z,21.55
2023-03-02T10:38:54.647Z,20.74
2023-03-02T10:39:54.639Z,20.60
2023-03-02T10:40:54.605Z,21.36
2023-03-02T10:41:54.694Z,22.09
2023-03-02T10:42:54.970Z,22.21
2023-03-02T10:43:54.752Z,22.26
2023-03-02T10:44:54.747Z,22.85
2023-03-02T10:45:54.820Z,22.69
2023-03-02T10:46:54.856Z,22.70
2023-03-02T10:47:54.915Z,22.56
2023-03-02T10:48:55.424Z,22.68
2023-03-02T10:49:54.925Z,22.85
2023-03-02T10:50:54.957Z,22.88
2023-03-02T10:51:54.931Z,22.96
2023-03-02T10:52:59.893Z,22.88
2023-03-02T10:53:55.981Z,22.92
2023-03-02T10:54:54.949Z,22.89
2023-03-02T10:55:54.976Z,22.88
2023-03-02T10:56:54.987Z,22.95
2023-03-02T10:57:54.927Z,22.93
2023-03-02T10:58:56.451Z,22.85
2023-03-02T10:59:54.951Z,22.86
2023-03-02T11:00:54.902Z,22.77
2023-03-02T11:01:54.956Z,22.84
2023-03-02T11:02:55.054Z,22.94
2023-03-02T11:03:54.916Z,23.01
2023-03-02T11:04:57.339Z,23.09
2023-03-02T11:05:54.880Z,23.26
2023-03-02T11:06:54.901Z,23.33
2023-03-02T11:07:54.888Z,23.38
2023-03-02T11:08:54.869Z,23.52
2023-03-02T11:09:54.864Z,23.59
2023-03-02T11:10:56.939Z,23.65
2023-03-02T11:11:55.930Z,23.79
2023-03-02T11:12:54.830Z,24.06
2023-03-02T11:13:54.839Z,24.14
2023-03-02T11:14:54.840Z,24.24
2023-03-02T11:15:54.894Z,24.38
2023-03-02T11:16:54.811Z,24.53
2023-03-02T11:17:55.020Z,24.61
2023-03-02T11:18:54.817Z,24.71
2023-03-02T11:19:54.824Z,24.89
2023-03-02T11:20:54.791Z,25.12
2023-03-02T11:21:54.798Z,25.21
2023-03-02T11:22:54.801Z,25.39
2023-03-02T11:23:54.813Z,25.46
2023-03-02T11:24:54.755Z,25.56
2023-03-02T11:25:54.765Z,25.69
2023-03-02T11:26:54.842Z,25.80
2023-03-02T11:27:54.829Z,25.89
2023-03-02T11:28:54.952Z,26.01
2023-03-02T11:31:55.075Z,26.28
2023-03-02T11:32:55.514Z,26.39
2023-03-02T11:33:57.910Z,26.55
2023-03-02T11:34:55.201Z,26.63
2023-03-02T11:35:55.041Z,26.78
2023-03-02T11:36:55.078Z,27.19
2023-03-02T11:37:55.010Z,27.23
2023-03-02T11:38:55.050Z,27.38
2023-03-02T11:39:56.057Z,27.60
2023-03-02T11:40:54.973Z,27.61
2023-03-02T11:41:55.025Z,27.83
2023-03-02T11:42:54.987Z,27.84
2023-03-02T11:43:54.938Z,27.63
2023-03-02T11:44:54.955Z,27.54
2023-03-02T11:45:55.466Z,27.32
2023-03-02T11:46:55.395Z,27.31
2023-03-02T11:48:55.465Z,27.51
2023-03-02T11:51:58.311Z,27.72
2023-03-02T11:52:55.766Z,27.75
2023-03-02T11:53:55.039Z,27.84
2023-03-02T11:54:54.957Z,27.93
2023-03-02T11:55:54.933Z,27.99
2023-03-02T11:57:54.886Z,28.13
2023-03-02T11:58:54.848Z,28.20
2023-03-02T11:59:54.858Z,28.26
2023-03-02T12:00:54.867Z,28.37
2023-03-02T12:01:54.913Z,28.41
2023-03-02T12:02:54.825Z,28.51
2023-03-02T12:03:54.825Z,28.40
2023-03-02T12:05:54.796Z,28.17
2023-03-02T12:06:54.809Z,28.05
2023-03-02T12:07:54.811Z,27.98
2023-03-02T12:08:54.850Z,27.80
2023-03-02T12:09:54.824Z,27.70
2023-03-02T12:10:54.783Z,27.51
2023-03-02T12:11:54.777Z,27.42
2023-03-02T12:12:55.784Z,27.34
2023-03-02T12:17:54.732Z,27.02
2023-03-02T12:29:54.758Z,23.51
2023-03-02T12:30:54.711Z,22.25
2023-03-02T12:31:54.865Z,21.64
2023-03-02T13:22:56.347Z,22.27
2023-03-02T13:23:56.378Z,22.05
2023-03-02T13:24:56.405Z,22.17
2023-03-02T13:25:56.434Z,22.30
2023-03-02T13:26:56.431Z,22.21
2023-03-02T13:27:56.481Z,22.09
2023-03-02T13:28:56.515Z,22.21
2023-03-02T13:29:56.572Z,22.07
2023-03-02T13:30:56.676Z,21.96
2023-03-02T13:31:56.568Z,22.02
2023-03-02T13:32:56.596Z,21.88
2023-03-02T13:33:56.692Z,21.82
2023-03-02T13:34:56.716Z,21.69
2023-03-02T13:35:56.748Z,21.60
2023-03-02T13:36:56.789Z,21.57
2023-03-02T13:37:56.915Z,21.62
2023-03-02T13:38:56.875Z,21.52
2023-03-02T13:39:56.946Z,21.47
2023-03-02T13:40:56.914Z,21.44
2023-03-02T13:41:56.954Z,21.41
2023-03-02T13:42:56.987Z,21.37
2023-03-02T13:43:56.966Z,21.36
2023-03-02T13:44:57.003Z,21.52
2023-03-02T13:45:57.027Z,21.45
2023-03-02T13:46:57.013Z,21.33
2023-03-02T13:47:57.026Z,21.36
2023-03-02T13:49:09.230Z,21.30
2023-03-02T13:49:58.082Z,21.34
2023-03-02T13:50:57.011Z,21.42
2023-03-02T13:51:57.028Z,21.33
2023-03-02T13:52:56.996Z,21.35
2023-03-02T13:53:57.008Z,21.44
2023-03-02T13:54:57.046Z,21.36
2023-03-02T13:55:56.970Z,21.39
2023-03-02T13:56:56.982Z,21.45
2023-03-02T13:57:56.974Z,21.46
2023-03-02T13:58:57.004Z,21.58
2023-03-02T13:59:56.970Z,21.37
2023-03-02T14:00:56.946Z,21.37
2023-03-02T14:01:56.947Z,21.61
2023-03-02T14:02:56.924Z,21.50
2023-03-02T14:03:57.480Z,21.76
2023-03-02T14:04:57.038Z,22.32
2023-03-02T14:05:56.925Z,22.30
2023-03-02T14:06:56.912Z,23.36
2023-03-02T14:07:56.881Z,24.59
2023-03-02T14:08:56.913Z,26.88
2023-03-02T14:09:57.686Z,30.90
2023-03-02T14:10:56.878Z,33.60
2023-03-02T14:11:56.879Z,35.64
2023-03-02T14:12:56.847Z,36.01
2023-03-02T14:13:56.861Z,37.69
2023-03-02T14:14:56.876Z,37.46
2023-03-02T14:15:56.944Z,38.09
2023-03-02T14:16:56.835Z,39.76
2023-03-02T14:17:56.816Z,40.61
2023-03-02T14:18:56.845Z,41.16
2023-03-02T14:19:56.852Z,41.79
2023-03-02T14:20:56.876Z,42.31
2023-03-02T14:21:56.868Z,42.81
2023-03-02T14:22:56.839Z,42.60
2023-03-02T14:23:56.831Z,42.53
2023-03-02T14:24:56.785Z,42.22
2023-03-02T14:25:56.810Z,42.03
2023-03-02T14:26:56.810Z,42.18
2023-03-02T14:27:56.781Z,42.06
2023-03-02T14:29:05.551Z,42.02
2023-03-02T14:29:57.819Z,42.06
2023-03-02T14:30:56.844Z,42.11
2023-03-02T14:31:56.875Z,41.25
2023-03-02T14:32:56.945Z,40.74
2023-03-02T14:33:57.322Z,40.03
2023-03-02T14:34:56.769Z,39.54
2023-03-02T14:35:56.899Z,39.13
2023-03-02T14:36:56.760Z,38.86
2023-03-02T14:37:56.753Z,38.82
2023-03-02T14:38:56.823Z,38.54
2023-03-02T14:39:57.458Z,38.54
2023-03-02T14:40:56.808Z,38.42
2023-03-02T14:41:57.061Z,38.48
2023-03-02T14:42:57.026Z,38.22
2023-03-02T14:43:56.787Z,38.01
2023-03-02T14:44:56.912Z,38.12
2023-03-02T14:45:56.772Z,37.89
2023-03-02T14:46:56.682Z,37.70
2023-03-02T14:47:56.932Z,37.48
2023-03-02T14:48:56.847Z,37.44
2023-03-02T14:49:56.724Z,37.43
2023-03-02T14:50:56.649Z,37.34
2023-03-02T14:51:56.858Z,37.31
2023-03-02T14:52:56.665Z,37.19
2023-03-02T14:53:56.984Z,37.01
2023-03-02T14:54:56.657Z,36.98
2023-03-02T14:55:56.677Z,36.89
2023-03-02T14:56:56.664Z,36.85
2023-03-02T14:57:56.644Z,36.76
2023-03-02T14:58:56.632Z,36.63
2023-03-02T14:59:56.647Z,36.64
2023-03-02T15:00:56.608Z,36.48
2023-03-02T15:01:58.534Z,36.41
2023-03-02T15:02:56.699Z,36.39
2023-03-02T15:03:56.601Z,36.56
2023-03-02T15:04:56.823Z,36.27
2023-03-02T15:06:01.164Z,36.17
2023-03-02T15:06:57.595Z,36.10
2023-03-02T15:07:58.454Z,36.01
2023-03-02T15:08:56.577Z,35.89
2023-03-02T15:09:56.577Z,35.82
2023-03-02T15:10:56.541Z,35.82
2023-03-02T15:11:56.504Z,35.70
2023-03-02T15:12:56.535Z,35.58
2023-03-02T15:13:56.526Z,35.47
2023-03-02T15:14:56.605Z,35.53
2023-03-02T15:15:56.557Z,35.48
2023-03-02T15:16:56.522Z,35.37
2023-03-02T15:17:56.483Z,35.14
2023-03-02T15:18:58.720Z,35.30
2023-03-02T15:19:56.476Z,35.14
2023-03-02T15:20:56.483Z,35.01
2023-03-02T15:21:56.487Z,35.00
2023-03-02T15:22:56.502Z,35.10
2023-03-02T15:23:56.525Z,34.84
2023-03-02T15:24:56.556Z,34.82
2023-03-02T15:25:56.507Z,34.83
2023-03-02T15:26:56.560Z,34.75
2023-03-02T15:27:56.544Z,34.74
2023-03-02T15:28:56.500Z,34.66
2023-03-02T15:29:57.086Z,34.64
2023-03-02T15:30:56.505Z,34.52
2023-03-02T15:31:56.639Z,34.42
2023-03-02T15:32:56.524Z,34.42
2023-03-02T15:33:56.511Z,34.46
2023-03-02T15:34:56.551Z,34.41
2023-03-02T15:35:57.146Z,34.44
2023-03-02T15:36:56.483Z,34.64
2023-03-02T15:37:56.497Z,34.41
2023-03-02T15:38:56.520Z,34.22
2023-03-02T15:39:56.540Z,34.30
2023-03-02T15:40:56.530Z,34.23
2023-03-02T15:41:56.487Z,34.02
2023-03-02T15:42:56.497Z,34.19
2023-03-02T15:43:56.485Z,34.11
2023-03-02T15:44:56.510Z,33.97
2023-03-02T15:45:56.481Z,33.91
2023-03-02T15:46:56.583Z,33.86
2023-03-02T15:47:56.471Z,33.75
2023-03-02T15:48:56.504Z,34.06
2023-03-02T15:49:56.513Z,33.75
2023-03-02T15:50:56.518Z,33.68
2023-03-02T15:51:56.497Z,33.65
2023-03-02T15:52:56.495Z,33.62
2023-03-02T15:53:56.495Z,33.51
2023-03-02T15:54:56.468Z,33.55
2023-03-02T15:55:57.133Z,33.55
2023-03-02T15:56:56.499Z,33.55
2023-03-02T15:57:56.481Z,33.49
2023-03-02T15:58:56.460Z,33.28
2023-03-02T15:59:56.497Z,33.37
2023-03-02T16:00:56.530Z,33.34
2023-03-02T16:01:56.450Z,33.29
2023-03-02T16:02:56.565Z,33.29
2023-03-02T16:03:56.459Z,33.18
2023-03-02T16:04:56.637Z,33.10
2023-03-02T16:05:56.480Z,33.01
2023-03-02T16:06:56.461Z,33.10
2023-03-02T16:07:56.478Z,33.06
2023-03-02T16:08:56.470Z,32.96
2023-03-02T16:09:56.517Z,32.86
2023-03-02T16:10:56.554Z,32.81
2023-03-02T16:11:56.501Z,32.83
2023-03-02T16:12:56.531Z,32.80
2023-03-02T16:13:56.512Z,32.78
2023-03-02T16:14:56.512Z,32.76
2023-03-02T16:15:56.512Z,32.72
2023-03-02T16:16:56.597Z,32.63
2023-03-02T16:17:56.493Z,32.55
2023-03-02T16:18:56.533Z,32.44
2023-03-02T16:19:56.549Z,32.35
2023-03-02T16:20:56.539Z,32.42
2023-03-02T16:21:56.552Z,32.49
2023-03-02T16:22:56.536Z,32.47
2023-03-02T16:23:56.541Z,32.18
2023-03-02T16:24:56.571Z,32.04
2023-03-02T16:25:56.547Z,32.37
2023-03-02T16:26:56.588Z,32.21